sensor_id;sensor_type;location;lat;lon;timestamp;P1;durP1;ratioP1;P2;durP2;ratioP2
65668;SDS011;52376;47.448;19.354;2023-03-20T00:01:47;2.85;;;0.60;;
65668;SDS011;52376;47.448;19.354;2023-03-20T00:04:15;2.08;;;1.08;;
65668;SDS011;52376;47.448;19.354;2023-03-20T00:06:43;5.28;;;2.00;;
65668;SDS011;52376;47.448;19.354;2023-03-20T00:09:11;0.52;;;0.47;;
65668;SDS011;52376;47.448;19.354;2023-03-20T00:11:49;0.10;;;0.10;;
65668;SDS011;52376;47.448;19.354;2023-03-20T00:14:19;1.45;;;0.70;;
65668;SDS011;52376;47.448;19.354;2023-03-20T00:16:48;1.02;;;0.90;;
65668;SDS011;52376;47.448;19.354;2023-03-20T00:19:19;0.10;;;0.10;;
65668;SDS011;52376;47.448;19.354;2023-03-20T00:21:49;0.68;;;0.68;;
65668;SDS011;52376;47.448;19.354;2023-03-20T00:24:18;0.57;;;0.50;;
65668;SDS011;52376;47.448;19.354;2023-03-20T00:26:46;1.55;;;0.57;;
65668;SDS011;52376;47.448;19.354;2023-03-20T00:29:25;0.95;;;0.90;;
65668;SDS011;52376;47.448;19.354;2023-03-20T00:31:54;7.18;;;1.15;;
65668;SDS011;52376;47.448;19.354;2023-03-20T00:34:23;1.23;;;0.90;;
65668;SDS011;52376;47.448;19.354;2023-03-20T00:36:52;0.70;;;0.62;;
65668;SDS011;52376;47.448;19.354;2023-03-20T00:39:20;0.88;;;0.57;;
65668;SDS011;52376;47.448;19.354;2023-03-20T00:41:55;1.42;;;1.15;;
65668;SDS011;52376;47.448;19.354;2023-03-20T00:44:37;3.40;;;0.68;;
65668;SDS011;52376;47.448;19.354;2023-03-20T00:47:15;5.30;;;1.12;;
65668;SDS011;52376;47.448;19.354;2023-03-20T00:49:46;0.10;;;0.10;;
65668;SDS011;52376;47.448;19.354;2023-03-20T00:52:19;1.90;;;0.60;;
65668;SDS011;52376;47.448;19.354;2023-03-20T00:54:50;0.20;;;0.20;;
65668;SDS011;52376;47.448;19.354;2023-03-20T00:57:21;1.45;;;0.90;;
65668;SDS011;52376;47.448;19.354;2023-03-20T00:59:57;0.62;;;0.60;;
65668;SDS011;52376;47.448;19.354;2023-03-20T01:02:28;1.35;;;0.82;;
65668;SDS011;52376;47.448;19.354;2023-03-20T01:04:56;0.30;;;0.30;;
65668;SDS011;52376;47.448;19.354;2023-03-20T01:07:24;0.15;;;0.15;;
65668;SDS011;52376;47.448;19.354;2023-03-20T01:10:03;0.73;;;0.52;;
65668;SDS011;52376;47.448;19.354;2023-03-20T01:12:31;0.60;;;0.40;;
65668;SDS011;52376;47.448;19.354;2023-03-20T01:14:59;0.73;;;0.40;;
65668;SDS011;52376;47.448;19.354;2023-03-20T01:17:27;2.20;;;1.17;;
65668;SDS011;52376;47.448;19.354;2023-03-20T01:19:55;2.15;;;0.70;;
65668;SDS011;52376;47.448;19.354;2023-03-20T01:22:23;1.37;;;1.08;;
65668;SDS011;52376;47.448;19.354;2023-03-20T01:24:51;2.15;;;1.33;;
65668;SDS011;52376;47.448;19.354;2023-03-20T01:27:19;4.87;;;0.85;;
65668;SDS011;52376;47.448;19.354;2023-03-20T01:29:48;0.20;;;0.15;;
65668;SDS011;52376;47.448;19.354;2023-03-20T01:32:16;2.65;;;1.42;;
65668;SDS011;52376;47.448;19.354;2023-03-20T01:34:46;5.57;;;0.93;;
65668;SDS011;52376;47.448;19.354;2023-03-20T01:37:16;0.55;;;0.55;;
65668;SDS011;52376;47.448;19.354;2023-03-20T01:39:52;0.20;;;0.20;;
65668;SDS011;52376;47.448;19.354;2023-03-20T01:42:20;1.30;;;0.40;;
65668;SDS011;52376;47.448;19.354;2023-03-20T01:44:48;2.67;;;1.15;;
65668;SDS011;52376;47.448;19.354;2023-03-20T01:47:17;0.73;;;0.47;;
65668;SDS011;52376;47.448;19.354;2023-03-20T01:52:52;0.30;;;0.30;;
65668;SDS011;52376;47.448;19.354;2023-03-20T01:55:23;0.17;;;0.17;;
65668;SDS011;52376;47.448;19.354;2023-03-20T01:57:51;5.10;;;3.65;;
65668;SDS011;52376;47.448;19.354;2023-03-20T02:00:21;0.20;;;0.20;;
65668;SDS011;52376;47.448;19.354;2023-03-20T02:02:49;5.22;;;0.98;;
65668;SDS011;52376;47.448;19.354;2023-03-20T02:05:18;4.37;;;0.75;;
65668;SDS011;52376;47.448;19.354;2023-03-20T02:07:50;0.65;;;0.65;;
65668;SDS011;52376;47.448;19.354;2023-03-20T02:10:25;0.68;;;0.40;;
65668;SDS011;52376;47.448;19.354;2023-03-20T02:12:53;4.37;;;0.75;;
65668;SDS011;52376;47.448;19.354;2023-03-20T02:15:24;0.10;;;0.10;;
65668;SDS011;52376;47.448;19.354;2023-03-20T02:17:59;0.50;;;0.28;;
65668;SDS011;52376;47.448;19.354;2023-03-20T02:20:33;0.25;;;0.25;;
65668;SDS011;52376;47.448;19.354;2023-03-20T02:37:19;0.17;;;0.17;;
65668;SDS011;52376;47.448;19.354;2023-03-20T02:42:26;2.67;;;0.93;;
65668;SDS011;52376;47.448;19.354;2023-03-20T02:45:14;0.10;;;0.10;;
65668;SDS011;52376;47.448;19.354;2023-03-20T02:50:18;1.08;;;0.98;;
65668;SDS011;52376;47.448;19.354;2023-03-20T02:52:56;0.37;;;0.37;;
65668;SDS011;52376;47.448;19.354;2023-03-20T02:58:14;1.42;;;0.93;;
65668;SDS011;52376;47.448;19.354;2023-03-20T03:03:32;0.47;;;0.47;;
65668;SDS011;52376;47.448;19.354;2023-03-20T03:06:05;0.37;;;0.30;;
65668;SDS011;52376;47.448;19.354;2023-03-20T03:08:37;0.45;;;0.32;;
65668;SDS011;52376;47.448;19.354;2023-03-20T03:11:08;0.30;;;0.30;;
65668;SDS011;52376;47.448;19.354;2023-03-20T03:13:37;3.00;;;0.77;;
65668;SDS011;52376;47.448;19.354;2023-03-20T03:16:09;0.15;;;0.15;;
65668;SDS011;52376;47.448;19.354;2023-03-20T03:18:40;0.25;;;0.25;;
65668;SDS011;52376;47.448;19.354;2023-03-20T03:21:09;1.00;;;0.70;;
65668;SDS011;52376;47.448;19.354;2023-03-20T03:23:41;1.05;;;0.50;;
65668;SDS011;52376;47.448;19.354;2023-03-20T03:26:14;0.90;;;0.57;;
65668;SDS011;52376;47.448;19.354;2023-03-20T03:29:07;0.20;;;0.20;;
65668;SDS011;52376;47.448;19.354;2023-03-20T03:31:40;0.45;;;0.45;;
65668;SDS011;52376;47.448;19.354;2023-03-20T03:34:10;0.62;;;0.30;;
65668;SDS011;52376;47.448;19.354;2023-03-20T03:39:44;0.30;;;0.30;;
65668;SDS011;52376;47.448;19.354;2023-03-20T03:42:29;3.50;;;0.95;;
65668;SDS011;52376;47.448;19.354;2023-03-20T03:50:35;2.62;;;0.77;;
65668;SDS011;52376;47.448;19.354;2023-03-20T03:53:08;0.65;;;0.65;;
65668;SDS011;52376;47.448;19.354;2023-03-20T03:55:38;0.20;;;0.20;;
65668;SDS011;52376;47.448;19.354;2023-03-20T03:58:15;0.28;;;0.20;;
65668;SDS011;52376;47.448;19.354;2023-03-20T04:00:45;0.25;;;0.25;;
65668;SDS011;52376;47.448;19.354;2023-03-20T04:03:15;0.30;;;0.30;;
65668;SDS011;52376;47.448;19.354;2023-03-20T04:05:44;1.35;;;1.00;;
65668;SDS011;52376;47.448;19.354;2023-03-20T04:08:13;0.68;;;0.68;;
65668;SDS011;52376;47.448;19.354;2023-03-20T04:10:41;0.98;;;0.70;;
65668;SDS011;52376;47.448;19.354;2023-03-20T04:13:09;0.35;;;0.35;;
65668;SDS011;52376;47.448;19.354;2023-03-20T04:15:37;0.10;;;0.10;;
65668;SDS011;52376;47.448;19.354;2023-03-20T04:18:05;0.22;;;0.22;;
65668;SDS011;52376;47.448;19.354;2023-03-20T04:20:33;0.10;;;0.10;;
65668;SDS011;52376;47.448;19.354;2023-03-20T04:23:01;0.20;;;0.20;;
65668;SDS011;52376;47.448;19.354;2023-03-20T04:25:29;0.70;;;0.47;;
65668;SDS011;52376;47.448;19.354;2023-03-20T04:27:57;0.28;;;0.28;;
65668;SDS011;52376;47.448;19.354;2023-03-20T04:30:25;0.82;;;0.73;;
65668;SDS011;52376;47.448;19.354;2023-03-20T04:32:55;0.45;;;0.45;;
65668;SDS011;52376;47.448;19.354;2023-03-20T04:35:24;0.43;;;0.43;;
65668;SDS011;52376;47.448;19.354;2023-03-20T04:37:51;0.30;;;0.30;;
65668;SDS011;52376;47.448;19.354;2023-03-20T04:40:20;0.35;;;0.25;;
65668;SDS011;52376;47.448;19.354;2023-03-20T04:42:48;0.35;;;0.35;;
65668;SDS011;52376;47.448;19.354;2023-03-20T04:45:17;0.17;;;0.17;;
65668;SDS011;52376;47.448;19.354;2023-03-20T04:47:45;0.98;;;0.10;;
65668;SDS011;52376;47.448;19.354;2023-03-20T04:50:13;0.43;;;0.25;;
65668;SDS011;52376;47.448;19.354;2023-03-20T04:52:40;4.53;;;1.23;;
65668;SDS011;52376;47.448;19.354;2023-03-20T04:55:09;0.60;;;0.60;;
65668;SDS011;52376;47.448;19.354;2023-03-20T04:57:36;0.35;;;0.30;;
65668;SDS011;52376;47.448;19.354;2023-03-20T05:00:04;0.40;;;0.30;;
65668;SDS011;52376;47.448;19.354;2023-03-20T05:02:33;0.30;;;0.30;;
65668;SDS011;52376;47.448;19.354;2023-03-20T05:05:01;3.60;;;1.10;;
65668;SDS011;52376;47.448;19.354;2023-03-20T05:07:29;0.35;;;0.35;;
65668;SDS011;52376;47.448;19.354;2023-03-20T05:09:58;0.57;;;0.57;;
65668;SDS011;52376;47.448;19.354;2023-03-20T05:12:27;2.12;;;0.80;;
65668;SDS011;52376;47.448;19.354;2023-03-20T05:14:55;0.35;;;0.35;;
65668;SDS011;52376;47.448;19.354;2023-03-20T05:17:23;0.43;;;0.25;;
65668;SDS011;52376;47.448;19.354;2023-03-20T05:19:51;0.35;;;0.22;;
65668;SDS011;52376;47.448;19.354;2023-03-20T05:22:20;0.13;;;0.13;;
65668;SDS011;52376;47.448;19.354;2023-03-20T05:24:48;1.25;;;0.50;;
65668;SDS011;52376;47.448;19.354;2023-03-20T05:27:16;0.75;;;0.70;;
65668;SDS011;52376;47.448;19.354;2023-03-20T05:29:45;0.17;;;0.17;;
65668;SDS011;52376;47.448;19.354;2023-03-20T05:32:13;0.57;;;0.43;;
65668;SDS011;52376;47.448;19.354;2023-03-20T05:34:41;2.85;;;1.23;;
65668;SDS011;52376;47.448;19.354;2023-03-20T05:37:09;1.37;;;0.47;;
65668;SDS011;52376;47.448;19.354;2023-03-20T05:39:37;2.17;;;0.40;;
65668;SDS011;52376;47.448;19.354;2023-03-20T05:42:05;1.12;;;0.45;;
65668;SDS011;52376;47.448;19.354;2023-03-20T05:44:34;0.35;;;0.35;;
65668;SDS011;52376;47.448;19.354;2023-03-20T05:47:02;4.28;;;0.47;;
65668;SDS011;52376;47.448;19.354;2023-03-20T05:49:30;0.20;;;0.20;;
65668;SDS011;52376;47.448;19.354;2023-03-20T05:52:03;0.10;;;0.10;;
65668;SDS011;52376;47.448;19.354;2023-03-20T05:54:32;0.88;;;0.62;;
65668;SDS011;52376;47.448;19.354;2023-03-20T05:57:00;1.75;;;0.60;;
65668;SDS011;52376;47.448;19.354;2023-03-20T05:59:29;0.65;;;0.65;;
65668;SDS011;52376;47.448;19.354;2023-03-20T06:01:58;2.15;;;1.12;;
65668;SDS011;52376;47.448;19.354;2023-03-20T06:04:27;0.62;;;0.50;;
65668;SDS011;52376;47.448;19.354;2023-03-20T06:06:56;1.20;;;0.93;;
65668;SDS011;52376;47.448;19.354;2023-03-20T06:09:24;0.45;;;0.45;;
65668;SDS011;52376;47.448;19.354;2023-03-20T06:11:53;0.00;;;0.00;;
65668;SDS011;52376;47.448;19.354;2023-03-20T06:14:20;1.08;;;0.62;;
65668;SDS011;52376;47.448;19.354;2023-03-20T06:16:49;3.70;;;2.17;;
65668;SDS011;52376;47.448;19.354;2023-03-20T06:19:17;0.65;;;0.55;;
65668;SDS011;52376;47.448;19.354;2023-03-20T06:21:50;0.20;;;0.20;;
65668;SDS011;52376;47.448;19.354;2023-03-20T06:24:18;1.20;;;0.85;;
65668;SDS011;52376;47.448;19.354;2023-03-20T06:26:47;0.43;;;0.43;;
65668;SDS011;52376;47.448;19.354;2023-03-20T06:29:14;0.62;;;0.62;;
65668;SDS011;52376;47.448;19.354;2023-03-20T06:31:43;1.65;;;1.55;;
65668;SDS011;52376;47.448;19.354;2023-03-20T06:34:11;0.43;;;0.43;;
65668;SDS011;52376;47.448;19.354;2023-03-20T06:36:39;4.40;;;0.73;;
65668;SDS011;52376;47.448;19.354;2023-03-20T06:39:13;0.22;;;0.22;;
65668;SDS011;52376;47.448;19.354;2023-03-20T06:41:40;1.55;;;0.90;;
65668;SDS011;52376;47.448;19.354;2023-03-20T06:44:09;3.47;;;1.95;;
65668;SDS011;52376;47.448;19.354;2023-03-20T06:46:43;0.10;;;0.10;;
65668;SDS011;52376;47.448;19.354;2023-03-20T06:49:10;2.67;;;1.35;;
65668;SDS011;52376;47.448;19.354;2023-03-20T06:51:38;3.08;;;2.40;;
65668;SDS011;52376;47.448;19.354;2023-03-20T06:54:07;0.68;;;0.57;;
65668;SDS011;52376;47.448;19.354;2023-03-20T06:56:34;1.33;;;0.93;;
65668;SDS011;52376;47.448;19.354;2023-03-20T06:59:02;0.10;;;0.10;;
65668;SDS011;52376;47.448;19.354;2023-03-20T07:01:30;0.20;;;0.20;;
65668;SDS011;52376;47.448;19.354;2023-03-20T07:03:58;0.57;;;0.57;;
65668;SDS011;52376;47.448;19.354;2023-03-20T07:06:26;0.50;;;0.50;;
65668;SDS011;52376;47.448;19.354;2023-03-20T07:08:55;0.40;;;0.37;;
65668;SDS011;52376;47.448;19.354;2023-03-20T07:11:23;0.10;;;0.10;;
65668;SDS011;52376;47.448;19.354;2023-03-20T07:13:52;1.60;;;0.50;;
65668;SDS011;52376;47.448;19.354;2023-03-20T07:16:21;0.20;;;0.20;;
65668;SDS011;52376;47.448;19.354;2023-03-20T07:18:49;0.88;;;0.52;;
65668;SDS011;52376;47.448;19.354;2023-03-20T07:21:19;0.50;;;0.50;;
65668;SDS011;52376;47.448;19.354;2023-03-20T07:23:48;1.00;;;0.75;;
65668;SDS011;52376;47.448;19.354;2023-03-20T07:26:16;0.22;;;0.22;;
65668;SDS011;52376;47.448;19.354;2023-03-20T07:28:44;0.37;;;0.37;;
65668;SDS011;52376;47.448;19.354;2023-03-20T07:31:20;1.42;;;1.15;;
65668;SDS011;52376;47.448;19.354;2023-03-20T07:33:50;1.95;;;0.37;;
65668;SDS011;52376;47.448;19.354;2023-03-20T07:36:19;0.80;;;0.55;;
65668;SDS011;52376;47.448;19.354;2023-03-20T07:38:47;3.12;;;1.80;;
65668;SDS011;52376;47.448;19.354;2023-03-20T07:41:14;0.85;;;0.57;;
65668;SDS011;52376;47.448;19.354;2023-03-20T07:43:43;0.32;;;0.30;;
65668;SDS011;52376;47.448;19.354;2023-03-20T07:46:14;0.15;;;0.15;;
65668;SDS011;52376;47.448;19.354;2023-03-20T07:48:43;0.10;;;0.10;;
65668;SDS011;52376;47.448;19.354;2023-03-20T07:51:11;0.30;;;0.20;;
65668;SDS011;52376;47.448;19.354;2023-03-20T07:53:38;0.75;;;0.75;;
65668;SDS011;52376;47.448;19.354;2023-03-20T07:56:07;0.30;;;0.30;;
65668;SDS011;52376;47.448;19.354;2023-03-20T07:58:35;0.90;;;0.57;;
65668;SDS011;52376;47.448;19.354;2023-03-20T08:01:03;0.40;;;0.40;;
65668;SDS011;52376;47.448;19.354;2023-03-20T08:03:31;0.25;;;0.20;;
65668;SDS011;52376;47.448;19.354;2023-03-20T08:05:59;0.60;;;0.40;;
65668;SDS011;52376;47.448;19.354;2023-03-20T08:08:27;1.42;;;1.35;;
65668;SDS011;52376;47.448;19.354;2023-03-20T08:10:55;0.57;;;0.50;;
65668;SDS011;52376;47.448;19.354;2023-03-20T08:13:23;1.00;;;0.50;;
65668;SDS011;52376;47.448;19.354;2023-03-20T08:15:51;1.35;;;1.05;;
65668;SDS011;52376;47.448;19.354;2023-03-20T08:18:20;0.30;;;0.30;;
65668;SDS011;52376;47.448;19.354;2023-03-20T08:20:47;1.50;;;0.57;;
65668;SDS011;52376;47.448;19.354;2023-03-20T08:23:16;0.90;;;0.62;;
65668;SDS011;52376;47.448;19.354;2023-03-20T08:25:47;1.12;;;0.75;;
65668;SDS011;52376;47.448;19.354;2023-03-20T08:28:15;1.35;;;0.75;;
65668;SDS011;52376;47.448;19.354;2023-03-20T08:30:44;1.35;;;0.93;;
65668;SDS011;52376;47.448;19.354;2023-03-20T08:33:13;1.33;;;0.85;;
65668;SDS011;52376;47.448;19.354;2023-03-20T08:35:41;4.40;;;0.85;;
65668;SDS011;52376;47.448;19.354;2023-03-20T08:38:12;0.75;;;0.65;;
65668;SDS011;52376;47.448;19.354;2023-03-20T08:40:40;0.82;;;0.70;;
65668;SDS011;52376;47.448;19.354;2023-03-20T08:43:08;0.65;;;0.65;;
65668;SDS011;52376;47.448;19.354;2023-03-20T08:45:36;0.90;;;0.47;;
65668;SDS011;52376;47.448;19.354;2023-03-20T08:48:04;0.77;;;0.50;;
65668;SDS011;52376;47.448;19.354;2023-03-20T08:50:32;0.52;;;0.30;;
65668;SDS011;52376;47.448;19.354;2023-03-20T08:53:00;0.10;;;0.10;;
65668;SDS011;52376;47.448;19.354;2023-03-20T08:55:28;0.10;;;0.10;;
65668;SDS011;52376;47.448;19.354;2023-03-20T08:57:56;0.40;;;0.30;;
65668;SDS011;52376;47.448;19.354;2023-03-20T09:00:23;0.75;;;0.75;;
65668;SDS011;52376;47.448;19.354;2023-03-20T09:02:51;0.45;;;0.45;;
65668;SDS011;52376;47.448;19.354;2023-03-20T09:05:20;0.40;;;0.20;;
65668;SDS011;52376;47.448;19.354;2023-03-20T09:07:47;1.35;;;0.57;;
65668;SDS011;52376;47.448;19.354;2023-03-20T09:10:16;0.62;;;0.62;;
65668;SDS011;52376;47.448;19.354;2023-03-20T09:12:43;2.50;;;0.75;;
65668;SDS011;52376;47.448;19.354;2023-03-20T09:15:11;0.20;;;0.20;;
65668;SDS011;52376;47.448;19.354;2023-03-20T09:17:39;0.40;;;0.25;;
65668;SDS011;52376;47.448;19.354;2023-03-20T09:20:07;0.32;;;0.28;;
65668;SDS011;52376;47.448;19.354;2023-03-20T09:22:35;0.73;;;0.65;;
65668;SDS011;52376;47.448;19.354;2023-03-20T09:25:04;2.28;;;1.45;;
65668;SDS011;52376;47.448;19.354;2023-03-20T09:27:32;0.32;;;0.32;;
65668;SDS011;52376;47.448;19.354;2023-03-20T09:29:59;0.15;;;0.10;;
65668;SDS011;52376;47.448;19.354;2023-03-20T09:32:28;0.65;;;0.55;;
65668;SDS011;52376;47.448;19.354;2023-03-20T09:34:56;0.17;;;0.13;;
65668;SDS011;52376;47.448;19.354;2023-03-20T09:37:24;0.32;;;0.32;;
65668;SDS011;52376;47.448;19.354;2023-03-20T09:39:52;1.27;;;1.17;;
65668;SDS011;52376;47.448;19.354;2023-03-20T09:45:04;3.05;;;1.77;;
65668;SDS011;52376;47.448;19.354;2023-03-20T09:47:37;1.02;;;0.60;;
65668;SDS011;52376;47.448;19.354;2023-03-20T09:52:52;0.57;;;0.57;;
65668;SDS011;52376;47.448;19.354;2023-03-20T09:55:26;0.65;;;0.20;;
65668;SDS011;52376;47.448;19.354;2023-03-20T09:58:01;1.23;;;0.70;;
65668;SDS011;52376;47.448;19.354;2023-03-20T10:00:33;1.45;;;0.68;;
65668;SDS011;52376;47.448;19.354;2023-03-20T10:03:05;0.47;;;0.40;;
65668;SDS011;52376;47.448;19.354;2023-03-20T10:05:41;0.60;;;0.57;;
65668;SDS011;52376;47.448;19.354;2023-03-20T10:08:14;0.25;;;0.25;;
65668;SDS011;52376;47.448;19.354;2023-03-20T10:13:25;0.37;;;0.37;;
65668;SDS011;52376;47.448;19.354;2023-03-20T10:21:40;0.65;;;0.65;;
65668;SDS011;52376;47.448;19.354;2023-03-20T10:24:13;0.30;;;0.20;;
65668;SDS011;52376;47.448;19.354;2023-03-20T10:26:44;0.60;;;0.37;;
65668;SDS011;52376;47.448;19.354;2023-03-20T10:29:19;0.47;;;0.47;;
65668;SDS011;52376;47.448;19.354;2023-03-20T10:37:30;1.92;;;0.55;;
65668;SDS011;52376;47.448;19.354;2023-03-20T10:45:58;6.37;;;0.73;;
65668;SDS011;52376;47.448;19.354;2023-03-20T10:48:39;1.35;;;0.62;;
65668;SDS011;52376;47.448;19.354;2023-03-20T10:51:38;0.55;;;0.47;;
65668;SDS011;52376;47.448;19.354;2023-03-20T10:54:23;1.00;;;0.45;;
65668;SDS011;52376;47.448;19.354;2023-03-20T10:57:03;2.00;;;0.75;;
65668;SDS011;52376;47.448;19.354;2023-03-20T10:59:39;1.40;;;0.70;;
65668;SDS011;52376;47.448;19.354;2023-03-20T11:02:14;1.50;;;0.50;;
65668;SDS011;52376;47.448;19.354;2023-03-20T11:04:42;3.92;;;0.88;;
65668;SDS011;52376;47.448;19.354;2023-03-20T11:07:27;2.17;;;0.88;;
65668;SDS011;52376;47.448;19.354;2023-03-20T11:15:03;1.25;;;0.75;;
65668;SDS011;52376;47.448;19.354;2023-03-20T11:17:42;0.50;;;0.50;;
65668;SDS011;52376;47.448;19.354;2023-03-20T11:20:30;2.58;;;2.10;;
65668;SDS011;52376;47.448;19.354;2023-03-20T11:23:01;1.40;;;0.85;;
65668;SDS011;52376;47.448;19.354;2023-03-20T11:25:34;0.25;;;0.25;;
65668;SDS011;52376;47.448;19.354;2023-03-20T11:30:47;0.95;;;0.70;;
65668;SDS011;52376;47.448;19.354;2023-03-20T11:33:59;1.23;;;0.52;;
65668;SDS011;52376;47.448;19.354;2023-03-20T11:39:36;0.90;;;0.88;;
65668;SDS011;52376;47.448;19.354;2023-03-20T11:42:18;0.90;;;0.68;;
65668;SDS011;52376;47.448;19.354;2023-03-20T11:44:55;0.68;;;0.68;;
65668;SDS011;52376;47.448;19.354;2023-03-20T11:47:25;5.82;;;0.82;;
65668;SDS011;52376;47.448;19.354;2023-03-20T11:49:58;0.77;;;0.60;;
65668;SDS011;52376;47.448;19.354;2023-03-20T11:52:32;0.82;;;0.40;;
65668;SDS011;52376;47.448;19.354;2023-03-20T11:55:03;0.77;;;0.70;;
65668;SDS011;52376;47.448;19.354;2023-03-20T11:57:39;2.03;;;0.93;;
65668;SDS011;52376;47.448;19.354;2023-03-20T12:05:50;1.05;;;0.68;;
65668;SDS011;52376;47.448;19.354;2023-03-20T12:08:23;0.88;;;0.55;;
65668;SDS011;52376;47.448;19.354;2023-03-20T12:10:54;0.37;;;0.37;;
65668;SDS011;52376;47.448;19.354;2023-03-20T12:13:36;0.95;;;0.52;;
65668;SDS011;52376;47.448;19.354;2023-03-20T12:16:09;0.60;;;0.60;;
65668;SDS011;52376;47.448;19.354;2023-03-20T12:24:04;0.57;;;0.52;;
65668;SDS011;52376;47.448;19.354;2023-03-20T12:26:41;2.28;;;0.93;;
65668;SDS011;52376;47.448;19.354;2023-03-20T12:29:19;1.23;;;0.75;;
65668;SDS011;52376;47.448;19.354;2023-03-20T12:31:54;2.62;;;1.12;;
65668;SDS011;52376;47.448;19.354;2023-03-20T12:34:26;1.55;;;0.77;;
65668;SDS011;52376;47.448;19.354;2023-03-20T12:36:59;4.53;;;0.95;;
65668;SDS011;52376;47.448;19.354;2023-03-20T12:39:32;0.45;;;0.45;;
65668;SDS011;52376;47.448;19.354;2023-03-20T12:58:29;0.80;;;0.40;;
65668;SDS011;52376;47.448;19.354;2023-03-20T13:01:08;1.90;;;0.73;;
65668;SDS011;52376;47.448;19.354;2023-03-20T13:03:46;1.83;;;1.27;;
65668;SDS011;52376;47.448;19.354;2023-03-20T13:11:57;0.73;;;0.73;;
65668;SDS011;52376;47.448;19.354;2023-03-20T13:14:40;0.70;;;0.40;;
65668;SDS011;52376;47.448;19.354;2023-03-20T13:28:14;1.65;;;0.93;;
65668;SDS011;52376;47.448;19.354;2023-03-20T13:38:47;1.30;;;0.97;;
65668;SDS011;52376;47.448;19.354;2023-03-20T13:41:16;1.05;;;0.95;;
65668;SDS011;52376;47.448;19.354;2023-03-20T13:43:51;0.52;;;0.52;;
65668;SDS011;52376;47.448;19.354;2023-03-20T13:46:23;3.47;;;1.65;;
65668;SDS011;52376;47.448;19.354;2023-03-20T13:48:55;0.82;;;0.70;;
65668;SDS011;52376;47.448;19.354;2023-03-20T13:51:35;3.87;;;2.47;;
65668;SDS011;52376;47.448;19.354;2023-03-20T13:59:32;1.08;;;0.98;;
65668;SDS011;52376;47.448;19.354;2023-03-20T14:05:11;2.87;;;1.33;;
65668;SDS011;52376;47.448;19.354;2023-03-20T14:07:43;1.48;;;1.30;;
65668;SDS011;52376;47.448;19.354;2023-03-20T14:10:55;2.08;;;0.95;;
65668;SDS011;52376;47.448;19.354;2023-03-20T14:13:05;0.85;;;0.45;;
65668;SDS011;52376;47.448;19.354;2023-03-20T14:15:39;1.25;;;0.70;;
65668;SDS011;52376;47.448;19.354;2023-03-20T14:18:16;3.72;;;1.17;;
65668;SDS011;52376;47.448;19.354;2023-03-20T14:20:49;2.20;;;0.30;;
65668;SDS011;52376;47.448;19.354;2023-03-20T14:23:44;0.40;;;0.40;;
65668;SDS011;52376;47.448;19.354;2023-03-20T14:31:38;1.02;;;0.60;;
65668;SDS011;52376;47.448;19.354;2023-03-20T14:36:43;2.22;;;1.75;;
65668;SDS011;52376;47.448;19.354;2023-03-20T14:42:25;0.25;;;0.25;;
65668;SDS011;52376;47.448;19.354;2023-03-20T14:47:35;1.35;;;1.05;;
65668;SDS011;52376;47.448;19.354;2023-03-20T14:50:17;0.75;;;0.40;;
65668;SDS011;52376;47.448;19.354;2023-03-20T14:52:52;3.42;;;1.52;;
65668;SDS011;52376;47.448;19.354;2023-03-20T14:55:28;4.32;;;2.53;;
65668;SDS011;52376;47.448;19.354;2023-03-20T14:58:01;1.20;;;1.00;;
65668;SDS011;52376;47.448;19.354;2023-03-20T15:00:34;0.93;;;0.68;;
65668;SDS011;52376;47.448;19.354;2023-03-20T15:03:15;2.37;;;0.75;;
65668;SDS011;52376;47.448;19.354;2023-03-20T15:05:44;1.45;;;1.35;;
65668;SDS011;52376;47.448;19.354;2023-03-20T15:08:14;1.10;;;0.98;;
65668;SDS011;52376;47.448;19.354;2023-03-20T15:10:58;1.58;;;0.90;;
65668;SDS011;52376;47.448;19.354;2023-03-20T15:13:33;1.15;;;0.80;;
65668;SDS011;52376;47.448;19.354;2023-03-20T15:16:09;0.95;;;0.95;;
65668;SDS011;52376;47.448;19.354;2023-03-20T15:18:45;0.95;;;0.93;;
65668;SDS011;52376;47.448;19.354;2023-03-20T15:21:19;0.73;;;0.50;;
65668;SDS011;52376;47.448;19.354;2023-03-20T15:23:48;0.88;;;0.82;;
65668;SDS011;52376;47.448;19.354;2023-03-20T15:26:16;3.25;;;2.37;;
65668;SDS011;52376;47.448;19.354;2023-03-20T15:28:45;0.43;;;0.43;;
65668;SDS011;52376;47.448;19.354;2023-03-20T15:31:24;1.87;;;1.02;;
65668;SDS011;52376;47.448;19.354;2023-03-20T15:33:54;0.88;;;0.85;;
65668;SDS011;52376;47.448;19.354;2023-03-20T15:36:23;4.03;;;1.70;;
65668;SDS011;52376;47.448;19.354;2023-03-20T15:39:00;3.75;;;1.48;;
65668;SDS011;52376;47.448;19.354;2023-03-20T15:44:25;12.45;;;2.60;;
65668;SDS011;52376;47.448;19.354;2023-03-20T15:46:58;1.17;;;1.08;;
65668;SDS011;52376;47.448;19.354;2023-03-20T15:49:28;1.00;;;0.68;;
65668;SDS011;52376;47.448;19.354;2023-03-20T15:51:59;1.27;;;1.08;;
65668;SDS011;52376;47.448;19.354;2023-03-20T15:54:29;1.73;;;1.05;;
65668;SDS011;52376;47.448;19.354;2023-03-20T15:56:58;1.30;;;1.20;;
65668;SDS011;52376;47.448;19.354;2023-03-20T15:59:26;8.43;;;3.03;;
65668;SDS011;52376;47.448;19.354;2023-03-20T16:01:57;1.15;;;1.05;;
65668;SDS011;52376;47.448;19.354;2023-03-20T16:04:25;2.87;;;0.88;;
65668;SDS011;52376;47.448;19.354;2023-03-20T16:06:57;2.15;;;0.95;;
65668;SDS011;52376;47.448;19.354;2023-03-20T16:09:29;4.00;;;1.42;;
65668;SDS011;52376;47.448;19.354;2023-03-20T16:12:00;5.72;;;2.33;;
65668;SDS011;52376;47.448;19.354;2023-03-20T16:14:34;3.55;;;1.02;;
65668;SDS011;52376;47.448;19.354;2023-03-20T16:17:02;0.52;;;0.52;;
65668;SDS011;52376;47.448;19.354;2023-03-20T16:19:40;8.85;;;1.52;;
65668;SDS011;52376;47.448;19.354;2023-03-20T16:23:13;3.17;;;1.33;;
65668;SDS011;52376;47.448;19.354;2023-03-20T16:25:49;1.02;;;0.60;;
65668;SDS011;52376;47.448;19.354;2023-03-20T16:28:19;3.08;;;1.85;;
65668;SDS011;52376;47.448;19.354;2023-03-20T16:30:47;2.35;;;1.45;;
65668;SDS011;52376;47.448;19.354;2023-03-20T16:33:20;1.27;;;0.93;;
65668;SDS011;52376;47.448;19.354;2023-03-20T16:35:50;3.87;;;2.28;;
65668;SDS011;52376;47.448;19.354;2023-03-20T16:38:22;2.47;;;1.30;;
65668;SDS011;52376;47.448;19.354;2023-03-20T16:40:55;4.47;;;1.12;;
65668;SDS011;52376;47.448;19.354;2023-03-20T16:43:29;2.90;;;1.80;;
65668;SDS011;52376;47.448;19.354;2023-03-20T16:46:01;2.22;;;1.23;;
65668;SDS011;52376;47.448;19.354;2023-03-20T16:48:32;4.60;;;1.80;;
65668;SDS011;52376;47.448;19.354;2023-03-20T16:51:14;1.25;;;0.90;;
65668;SDS011;52376;47.448;19.354;2023-03-20T16:53:45;3.67;;;1.70;;
65668;SDS011;52376;47.448;19.354;2023-03-20T16:56:25;2.70;;;1.02;;
65668;SDS011;52376;47.448;19.354;2023-03-20T17:01:23;1.87;;;1.10;;
65668;SDS011;52376;47.448;19.354;2023-03-20T17:03:55;1.75;;;1.08;;
65668;SDS011;52376;47.448;19.354;2023-03-20T17:11:21;2.97;;;2.67;;
65668;SDS011;52376;47.448;19.354;2023-03-20T17:13:59;3.25;;;2.37;;
65668;SDS011;52376;47.448;19.354;2023-03-20T17:16:27;1.87;;;1.42;;
65668;SDS011;52376;47.448;19.354;2023-03-20T17:21:31;5.97;;;2.90;;
65668;SDS011;52376;47.448;19.354;2023-03-20T17:23:59;11.90;;;7.35;;
65668;SDS011;52376;47.448;19.354;2023-03-20T17:26:27;26.35;;;5.80;;
65668;SDS011;52376;47.448;19.354;2023-03-20T17:28:55;9.55;;;6.25;;
65668;SDS011;52376;47.448;19.354;2023-03-20T17:31:23;9.90;;;6.47;;
65668;SDS011;52376;47.448;19.354;2023-03-20T17:33:51;13.57;;;8.98;;
65668;SDS011;52376;47.448;19.354;2023-03-20T17:36:22;13.57;;;7.60;;
65668;SDS011;52376;47.448;19.354;2023-03-20T17:38:51;6.70;;;4.72;;